Time;durP1;ratioP1;P1;durP2;ratioP2;P2;SDS_P1;SDS_P2;PMS_P1;PMS_P2;Temp;Humidity;BMP_temperature;BMP_pressure;BME280_temperature;BME280_humidity;BME280_pressure;Samples;Min_cycle;Max_cycle;Signal;HPM_P1;HPM_P2
2022/09/13 00:00:30;;;;;;;7.50;4.23;;;15.10;36.00;;;;;;5029988;28;20479;-64
2022/09/13 00:02:58;;;;;;;7.27;4.27;;;15.10;36.20;;;;;;5033613;28;20541;-64
2022/09/13 00:05:25;;;;;;;6.60;4.37;;;15.00;36.40;;;;;;5029931;28;20465;-63
2022/09/13 00:07:52;;;;;;;10.97;4.90;;;15.00;36.70;;;;;;5032259;28;21028;-64
2022/09/13 00:10:19;;;;;;;7.20;4.77;;;15.00;36.80;;;;;;5022407;28;21044;-63
2022/09/13 00:12:47;;;;;;;6.47;4.30;;;15.00;36.70;;;;;;5031286;28;20486;-63
2022/09/13 00:15:14;;;;;;;7.33;4.80;;;15.00;36.80;;;;;;5027419;28;20650;-64
2022/09/13 00:17:41;;;;;;;9.40;4.40;;;14.90;36.70;;;;;;5026602;28;20839;-64
2022/09/13 00:20:10;;;;;;;7.50;4.43;;;14.90;36.80;;;;;;5025999;28;20478;-64
2022/09/13 00:22:37;;;;;;;6.30;4.33;;;14.90;36.70;;;;;;5027477;28;20459;-64
2022/09/13 00:25:04;;;;;;;7.03;4.33;;;14.80;36.70;;;;;;5027051;28;20463;-63
2022/09/13 00:27:33;;;;;;;6.27;3.77;;;14.80;36.70;;;;;;5027256;28;21056;-64
2022/09/13 00:30:00;;;;;;;7.83;4.63;;;14.80;36.90;;;;;;5025643;28;20494;-64
2022/09/13 00:32:27;;;;;;;7.97;4.17;;;14.70;36.80;;;;;;5026415;28;20497;-63
2022/09/13 00:34:54;;;;;;;8.33;4.70;;;14.70;36.90;;;;;;5021715;28;21010;-63
2022/09/13 00:37:22;;;;;;;7.47;4.20;;;14.60;36.90;;;;;;5028900;28;20470;-65
2022/09/13 00:39:49;;;;;;;11.93;4.80;;;14.60;36.90;;;;;;5032987;28;20479;-64
2022/09/13 00:42:16;;;;;;;7.73;4.80;;;14.50;36.80;;;;;;5031202;28;20462;-65
2022/09/13 00:44:53;;;;;;;7.30;3.83;;;14.50;36.90;;;;;;5029237;28;20455;-63
2022/09/13 00:47:25;;;;;;;6.80;4.30;;;14.50;37.50;;;;;;5025563;28;20467;-63
2022/09/13 00:49:57;;;;;;;7.67;4.80;;;14.40;37.10;;;;;;5024925;28;21037;-63
2022/09/13 00:52:29;;;;;;;6.47;4.03;;;14.30;37.50;;;;;;5044593;22;20470;-62
2022/09/13 00:54:58;;;;;;;7.47;4.33;;;14.30;37.70;;;;;;5038044;28;21050;-62
2022/09/13 00:57:26;;;;;;;7.60;4.97;;;14.30;37.80;;;;;;5040476;28;20459;-62
2022/09/13 00:59:58;;;;;;;7.00;4.27;;;14.30;37.90;;;;;;5039811;28;20459;-62
2022/09/13 01:02:26;;;;;;;7.03;4.10;;;14.30;38.10;;;;;;5037442;28;20856;-61
2022/09/13 01:04:53;;;;;;;8.10;4.90;;;14.20;37.90;;;;;;5041336;28;20462;-62
2022/09/13 01:07:19;;;;;;;7.57;4.30;;;14.20;38.00;;;;;;5042355;28;20467;-61
2022/09/13 01:09:50;;;;;;;10.30;3.73;;;14.20;38.30;;;;;;5043779;28;20884;-62
2022/09/13 01:12:26;;;;;;;8.73;4.30;;;14.10;38.40;;;;;;5036730;28;20458;-61
2022/09/13 01:14:54;;;;;;;7.20;3.83;;;14.10;38.60;;;;;;5039898;28;20486;-61
2022/09/13 01:17:21;;;;;;;6.50;4.03;;;14.10;38.30;;;;;;5044028;28;20469;-62
2022/09/13 01:19:48;;;;;;;7.47;4.90;;;14.10;38.30;;;;;;5040436;28;20459;-62
2022/09/13 01:22:51;;;;;;;13.30;5.60;;;14.10;38.30;;;;;;5036365;28;20462;-62
2022/09/13 01:25:40;;;;;;;7.87;4.10;;;14.00;38.60;;;;;;5040552;28;20484;-61
2022/09/13 01:28:18;;;;;;;6.80;4.10;;;14.00;38.40;;;;;;5043354;28;20462;-61
2022/09/13 01:30:51;;;;;;;8.40;3.90;;;13.90;38.10;;;;;;5037882;28;20852;-61
2022/09/13 01:33:39;;;;;;;6.40;4.30;;;13.90;38.10;;;;;;5039272;28;20485;-61
2022/09/13 01:36:24;;;;;;;7.20;4.00;;;13.90;38.00;;;;;;5044362;28;20462;-61
2022/09/13 01:38:58;;;;;;;6.63;3.83;;;13.80;37.70;;;;;;5038644;28;20473;-62
2022/09/13 01:41:43;;;;;;;6.50;4.13;;;13.80;37.50;;;;;;5044445;28;20454;-61
2022/09/13 01:44:20;;;;;;;8.33;4.10;;;13.80;37.50;;;;;;5039133;28;20508;-61
2022/09/13 01:46:53;;;;;;;7.73;4.87;;;13.80;37.40;;;;;;5038279;28;20887;-62
2022/09/13 01:49:28;;;;;;;9.80;3.93;;;13.70;37.40;;;;;;5041400;28;20453;-61
2022/09/13 01:52:01;;;;;;;10.70;4.80;;;13.70;37.40;;;;;;5039702;28;20992;-62
2022/09/13 01:54:34;;;;;;;7.87;4.90;;;13.70;37.60;;;;;;5041745;28;20481;-61
2022/09/13 01:57:06;;;;;;;7.33;4.83;;;13.70;37.80;;;;;;5043712;28;20469;-61
2022/09/13 01:59:39;;;;;;;7.60;4.70;;;13.70;37.80;;;;;;5043817;28;20462;-62
2022/09/13 02:02:12;;;;;;;10.20;4.87;;;13.60;38.00;;;;;;5039569;28;20499;-61
2022/09/13 02:04:43;;;;;;;12.20;5.20;;;13.60;38.80;;;;;;5040909;28;20458;-61
2022/09/13 02:07:15;;;;;;;7.60;4.60;;;13.60;38.80;;;;;;5041696;28;20458;-61
2022/09/13 02:09:44;;;;;;;8.30;4.83;;;13.60;38.70;;;;;;5042173;28;20466;-63
2022/09/13 02:12:16;;;;;;;17.40;4.87;;;13.60;38.80;;;;;;5037796;28;20459;-61
2022/09/13 02:14:51;;;;;;;7.97;4.53;;;13.60;38.90;;;;;;5040198;28;20477;-61
2022/09/13 02:17:23;;;;;;;9.30;4.83;;;13.60;38.80;;;;;;5040925;28;20461;-61
2022/09/13 02:19:55;;;;;;;10.40;4.90;;;13.60;38.70;;;;;;5043634;28;20465;-61
2022/09/13 02:22:27;;;;;;;10.47;5.03;;;13.60;38.70;;;;;;5042899;28;20466;-63
2022/09/13 02:24:59;;;;;;;7.53;4.90;;;13.60;38.70;;;;;;5040920;28;20466;-62
2022/09/13 02:27:32;;;;;;;8.87;5.07;;;13.50;38.70;;;;;;5039866;28;20963;-62
2022/09/13 02:30:02;;;;;;;8.53;5.20;;;13.50;38.70;;;;;;5042220;28;20462;-62
2022/09/13 02:32:33;;;;;;;7.03;4.83;;;13.60;38.50;;;;;;5043389;28;20474;-62
2022/09/13 02:35:04;;;;;;;8.93;5.43;;;13.50;38.70;;;;;;5043774;28;20483;-62
2022/09/13 02:37:34;;;;;;;6.90;4.37;;;13.50;38.70;;;;;;5041487;28;20481;-62
2022/09/13 02:40:05;;;;;;;7.93;4.70;;;13.50;38.70;;;;;;5043446;28;20483;-62
2022/09/13 02:42:37;;;;;;;7.50;4.60;;;13.50;38.80;;;;;;5044766;28;20478;-62
2022/09/13 02:45:06;;;;;;;11.10;4.57;;;13.50;38.60;;;;;;5041246;28;20454;-62
2022/09/13 02:47:45;;;;;;;11.40;5.20;;;13.50;38.50;;;;;;5042563;28;20476;-62
2022/09/13 02:50:28;;;;;;;7.23;4.33;;;13.40;38.60;;;;;;5044217;28;20457;-62
2022/09/13 02:53:03;;;;;;;6.40;4.00;;;13.40;38.50;;;;;;5042071;28;20481;-62
2022/09/13 02:55:42;;;;;;;7.40;4.17;;;13.30;38.50;;;;;;5036388;28;20484;-61
2022/09/13 02:58:14;;;;;;;8.37;5.03;;;13.30;38.70;;;;;;5037247;28;20485;-62
2022/09/13 03:00:41;;;;;;;7.03;4.30;;;13.30;38.50;;;;;;5042933;28;22329;-62
2022/09/13 03:03:13;;;;;;;8.00;4.40;;;13.30;38.60;;;;;;5043879;28;20478;-62
2022/09/13 03:05:40;;;;;;;8.97;4.20;;;13.20;38.60;;;;;;5039976;28;20465;-61
2022/09/13 03:08:10;;;;;;;8.90;4.50;;;13.20;38.50;;;;;;5041520;28;20473;-61
2022/09/13 03:10:48;;;;;;;7.07;4.27;;;13.20;38.60;;;;;;5039205;28;20465;-61
2022/09/13 03:13:45;;;;;;;7.93;4.77;;;13.20;38.70;;;;;;5044452;28;20858;-61
2022/09/13 03:16:28;;;;;;;9.77;4.80;;;13.20;38.80;;;;;;5036626;28;20699;-61
2022/09/13 03:19:15;;;;;;;8.03;4.33;;;13.10;38.60;;;;;;5041217;28;20474;-62
2022/09/13 03:21:58;;;;;;;10.07;4.67;;;13.10;38.70;;;;;;5042369;28;20463;-61
2022/09/13 03:24:33;;;;;;;7.97;4.53;;;13.10;38.80;;;;;;5038318;28;20480;-62
2022/09/13 03:27:13;;;;;;;8.57;4.67;;;13.10;38.60;;;;;;5039139;28;20457;-61
2022/09/13 03:29:50;;;;;;;8.17;4.80;;;13.10;38.90;;;;;;5044445;28;20507;-61
2022/09/13 03:32:25;;;;;;;7.40;4.47;;;13.10;38.80;;;;;;5045576;28;20476;-61
2022/09/13 03:35:01;;;;;;;7.60;4.87;;;13.10;38.70;;;;;;5045224;28;20845;-61
2022/09/13 03:37:34;;;;;;;9.63;4.47;;;13.10;39.10;;;;;;5043488;28;20544;-61
2022/09/13 03:40:08;;;;;;;7.80;4.10;;;13.00;39.20;;;;;;5045976;28;20970;-61
2022/09/13 03:42:41;;;;;;;9.50;5.03;;;13.00;39.10;;;;;;5042905;28;21037;-62
2022/09/13 03:45:11;;;;;;;7.70;5.00;;;13.00;39.30;;;;;;5044748;28;20985;-61
2022/09/13 03:47:41;;;;;;;9.13;5.70;;;13.00;39.30;;;;;;5044382;28;20458;-61
2022/09/13 03:50:14;;;;;;;8.80;5.30;;;13.00;39.30;;;;;;5047250;28;20468;-61
2022/09/13 03:52:42;;;;;;;9.80;6.37;;;13.00;39.50;;;;;;5042277;28;20493;-61
2022/09/13 03:55:09;;;;;;;10.47;6.37;;;13.00;39.70;;;;;;5042259;28;20478;-67
2022/09/13 03:57:37;;;;;;;10.30;6.97;;;13.00;39.60;;;;;;5041816;28;20462;-66
2022/09/13 04:00:05;;;;;;;10.10;6.73;;;13.00;39.60;;;;;;5038986;28;20823;-62
2022/09/13 04:02:31;;;;;;;11.37;6.27;;;13.10;39.80;;;;;;5037370;28;20477;-61
2022/09/13 04:04:58;;;;;;;8.97;6.60;;;13.00;39.70;;;;;;5040325;28;20982;-69
2022/09/13 04:07:26;;;;;;;9.17;5.00;;;13.00;39.70;;;;;;5039406;28;20462;-68
2022/09/13 04:09:53;;;;;;;9.00;5.80;;;13.00;39.60;;;;;;5039729;28;20507;-68
2022/09/13 04:12:20;;;;;;;11.20;5.60;;;13.00;39.40;;;;;;5043302;28;20545;-68
2022/09/13 04:14:47;;;;;;;9.60;5.80;;;13.00;39.20;;;;;;5041267;28;20624;-68
2022/09/13 04:17:14;;;;;;;8.00;5.00;;;12.90;39.10;;;;;;5041967;28;20459;-68
2022/09/13 04:19:43;;;;;;;10.20;6.00;;;12.90;39.20;;;;;;5042469;28;20462;-67
2022/09/13 04:22:10;;;;;;;8.83;5.70;;;12.90;39.20;;;;;;5046436;28;20462;-67
2022/09/13 04:24:38;;;;;;;8.97;5.57;;;12.90;39.30;;;;;;5040871;28;20481;-67
2022/09/13 04:27:06;;;;;;;9.30;5.53;;;12.90;39.40;;;;;;5042685;28;20519;-68
2022/09/13 04:29:33;;;;;;;8.90;6.13;;;12.90;39.60;;;;;;5043320;28;20462;-68
2022/09/13 04:32:00;;;;;;;9.50;5.60;;;12.90;39.90;;;;;;5040009;28;20493;-66
2022/09/13 04:34:26;;;;;;;11.33;6.57;;;12.90;40.20;;;;;;5040019;28;20490;-66
2022/09/13 04:36:54;;;;;;;8.40;5.30;;;12.90;40.10;;;;;;5040629;28;20536;-66
2022/09/13 04:39:22;;;;;;;9.73;6.00;;;12.90;40.30;;;;;;5041516;28;20458;-65
2022/09/13 04:41:54;;;;;;;9.37;6.00;;;12.80;40.40;;;;;;5039868;28;20454;-67
2022/09/13 04:44:22;;;;;;;9.00;6.20;;;12.90;40.60;;;;;;5042253;28;20838;-64
2022/09/13 04:46:49;;;;;;;9.47;6.30;;;12.90;40.50;;;;;;5041565;28;20970;-64
2022/09/13 04:49:18;;;;;;;8.50;5.30;;;12.90;40.30;;;;;;5043436;28;20477;-65
2022/09/13 04:51:46;;;;;;;12.47;6.60;;;12.90;40.30;;;;;;5039377;28;20458;-67
2022/09/13 04:54:13;;;;;;;11.53;7.17;;;12.90;40.60;;;;;;5042500;28;21101;-65
2022/09/13 04:56:40;;;;;;;9.57;5.90;;;12.90;40.40;;;;;;5039731;28;20470;-64
2022/09/13 04:59:09;;;;;;;9.50;6.23;;;12.90;40.30;;;;;;5043208;28;20466;-65
2022/09/13 05:01:36;;;;;;;10.20;4.87;;;12.90;40.30;;;;;;5041049;28;20982;-64
2022/09/13 05:04:03;;;;;;;8.50;5.50;;;12.90;40.20;;;;;;5039679;28;20474;-64
2022/09/13 05:06:30;;;;;;;12.87;6.80;;;12.90;40.20;;;;;;5039077;28;20458;-63
2022/09/13 05:08:57;;;;;;;10.67;5.10;;;13.00;39.90;;;;;;5039774;28;20954;-63
2022/09/13 05:11:25;;;;;;;10.50;6.60;;;13.00;39.90;;;;;;5041007;28;20480;-63
2022/09/13 05:13:54;;;;;;;8.57;5.27;;;13.20;40.20;;;;;;5041748;28;20512;-64
2022/09/13 05:16:23;;;;;;;8.83;5.50;;;13.20;40.70;;;;;;5036883;28;20970;-65
2022/09/13 05:18:50;;;;;;;9.57;5.87;;;13.30;40.70;;;;;;5044040;28;20477;-64
2022/09/13 05:21:17;;;;;;;10.30;5.30;;;13.40;40.30;;;;;;5044257;28;20473;-67
2022/09/13 05:23:44;;;;;;;7.57;5.10;;;13.50;39.80;;;;;;5042998;28;20486;-66
2022/09/13 05:26:11;;;;;;;7.50;5.03;;;13.60;39.20;;;;;;5042858;28;20458;-66
2022/09/13 05:28:38;;;;;;;9.00;4.57;;;13.60;38.70;;;;;;5044558;28;20454;-66
2022/09/13 05:31:07;;;;;;;13.73;6.20;;;13.70;38.20;;;;;;5042606;28;21012;-66
2022/09/13 05:33:37;;;;;;;8.50;4.73;;;14.00;38.00;;;;;;5043103;28;20475;-67
2022/09/13 05:36:04;;;;;;;10.97;4.80;;;14.70;36.80;;;;;;5036686;28;20474;-70
2022/09/13 05:38:31;;;;;;;6.73;3.87;;;15.30;35.20;;;;;;5042052;28;20468;-67
2022/09/13 05:41:00;;;;;;;7.10;4.50;;;15.90;34.00;;;;;;5041119;28;20583;-67
2022/09/13 05:43:29;;;;;;;8.33;4.40;;;16.50;31.90;;;;;;5042727;28;20479;-67
2022/09/13 05:46:01;;;;;;;7.20;4.10;;;16.90;30.60;;;;;;5042860;28;20461;-67
2022/09/13 05:48:28;;;;;;;7.20;3.03;;;17.20;29.60;;;;;;5038836;28;20843;-67
2022/09/13 05:50:56;;;;;;;6.13;3.20;;;17.40;29.00;;;;;;5041307;28;20890;-71
2022/09/13 05:53:23;;;;;;;6.17;3.60;;;17.60;28.40;;;;;;5039266;28;20482;-68
2022/09/13 05:55:49;;;;;;;6.97;3.80;;;17.80;28.20;;;;;;5044161;28;20485;-68
2022/09/13 05:58:16;;;;;;;6.37;3.80;;;17.90;28.50;;;;;;5044044;28;21005;-71
2022/09/13 06:00:43;;;;;;;6.80;4.17;;;18.20;27.50;;;;;;5043798;28;20465;-65
2022/09/13 06:03:10;;;;;;;8.73;4.20;;;18.30;27.00;;;;;;5042991;28;20486;-67
2022/09/13 06:05:36;;;;;;;8.23;4.13;;;18.60;27.00;;;;;;5041266;28;20985;-71
2022/09/13 06:08:04;;;;;;;7.67;4.40;;;18.90;26.30;;;;;;5037438;28;20561;-68
2022/09/13 06:10:32;;;;;;;9.20;4.23;;;19.20;24.40;;;;;;5035121;28;20989;-68
2022/09/13 06:12:59;;;;;;;7.00;4.03;;;19.80;22.40;;;;;;5042930;28;20547;-67
2022/09/13 06:15:25;;;;;;;6.53;3.73;;;20.30;21.10;;;;;;5041491;28;21009;-69
2022/09/13 06:17:52;;;;;;;8.30;4.00;;;20.70;20.10;;;;;;5042576;28;20470;-69
2022/09/13 06:20:19;;;;;;;6.73;4.10;;;21.10;19.10;;;;;;5043177;28;20541;-68
2022/09/13 06:22:47;;;;;;;7.37;4.30;;;21.60;18.30;;;;;;5043338;28;20488;-68
2022/09/13 06:25:16;;;;;;;8.90;3.60;;;22.20;17.20;;;;;;5042394;28;20454;-68
2022/09/13 06:27:42;;;;;;;7.70;4.07;;;23.30;15.30;;;;;;5039987;28;20455;-69
2022/09/13 06:30:11;;;;;;;7.30;4.07;;;24.40;13.30;;;;;;5042140;28;20465;-69
2022/09/13 06:32:39;;;;;;;6.63;3.80;;;25.50;10.50;;;;;;5041406;28;20482;-66
2022/09/13 06:35:08;;;;;;;6.90;3.57;;;25.80;8.90;;;;;;5044296;28;20513;-68
2022/09/13 06:37:34;;;;;;;6.30;4.50;;;25.70;8.50;;;;;;5042363;28;20466;-68
2022/09/13 06:40:04;;;;;;;5.83;3.60;;;25.50;8.80;;;;;;5042403;28;20462;-69
2022/09/13 06:42:34;;;;;;;8.37;4.00;;;25.10;9.20;;;;;;5040409;28;20478;-68
2022/09/13 06:45:00;;;;;;;7.43;4.40;;;24.80;10.00;;;;;;5040426;28;20462;-70
2022/09/13 06:47:27;;;;;;;5.70;3.60;;;24.80;10.20;;;;;;5040512;28;20466;-68
2022/09/13 06:49:54;;;;;;;6.40;3.47;;;25.00;10.20;;;;;;5040973;28;20473;-67
2022/09/13 06:52:21;;;;;;;6.67;3.47;;;25.50;9.50;;;;;;5039992;28;20488;-67
2022/09/13 06:54:47;;;;;;;6.20;3.53;;;25.80;8.70;;;;;;5055608;22;20505;-58
2022/09/13 06:57:14;;;;;;;6.30;3.07;;;25.80;8.00;;;;;;5035619;28;20469;-58
2022/09/13 06:59:43;;;;;;;7.10;3.60;;;25.60;8.10;;;;;;5041850;28;21080;-57
2022/09/13 07:02:11;;;;;;;5.87;3.20;;;25.40;8.60;;;;;;5039829;28;20485;-58
2022/09/13 07:04:37;;;;;;;5.23;3.40;;;25.50;8.90;;;;;;5041527;28;20478;-58
2022/09/13 07:07:04;;;;;;;7.10;3.20;;;25.70;8.70;;;;;;5040710;28;20462;-59
2022/09/13 07:09:33;;;;;;;5.73;3.27;;;27.40;7.50;;;;;;5039821;28;20852;-61
2022/09/13 07:12:00;;;;;;;7.33;2.87;;;29.90;4.00;;;;;;5040800;28;20458;-61
2022/09/13 07:14:29;;;;;;;5.00;2.43;;;32.20;1.00;;;;;;5038586;28;20856;-59
2022/09/13 07:16:57;;;;;;;4.80;2.90;;;33.90;1.00;;;;;;5039111;28;20478;-60
2022/09/13 07:19:26;;;;;;;5.77;2.67;;;35.10;1.00;;;;;;5042772;28;20837;-60
2022/09/13 07:21:53;;;;;;;5.53;3.20;;;36.10;1.00;;;;;;5039597;28;20544;-61
2022/09/13 07:24:21;;;;;;;4.80;2.80;;;37.10;1.00;;;;;;5040672;28;20481;-60
2022/09/13 07:26:48;;;;;;;4.63;2.10;;;37.90;1.00;;;;;;5041431;28;20467;-61
2022/09/13 07:29:18;;;;;;;5.37;2.53;;;38.70;1.00;;;;;;5037735;28;20463;-61
2022/09/13 07:31:46;;;;;;;5.60;2.20;;;39.50;1.00;;;;;;5021337;28;20471;-59
2022/09/13 07:34:15;;;;;;;7.10;2.50;;;39.50;1.00;;;;;;5018715;28;20475;-61
2022/09/13 07:36:43;;;;;;;6.00;3.00;;;39.60;1.00;;;;;;5020679;28;20557;-60
2022/09/13 07:39:10;;;;;;;4.40;2.60;;;40.30;1.00;;;;;;5021850;28;21034;-59
2022/09/13 07:41:37;;;;;;;6.70;2.97;;;41.00;1.00;;;;;;5021025;28;20471;-58
2022/09/13 07:44:06;;;;;;;5.73;2.40;;;41.60;1.00;;;;;;5019708;28;20462;-59
2022/09/13 07:46:38;;;;;;;8.97;2.60;;;42.20;1.00;;;;;;5020207;28;20451;-59
2022/09/13 07:49:06;;;;;;;7.73;2.20;;;42.90;1.00;;;;;;5020357;28;20458;-59
2022/09/13 07:51:35;;;;;;;4.60;2.20;;;43.70;1.00;;;;;;5019444;28;20451;-59
2022/09/13 07:54:04;;;;;;;4.90;2.40;;;44.30;1.00;;;;;;5021674;28;20465;-58
2022/09/13 07:56:33;;;;;;;5.27;2.07;;;45.00;1.00;;;;;;5015593;28;20998;-59
2022/09/13 07:59:00;;;;;;;5.20;2.10;;;45.60;1.00;;;;;;5021883;28;20470;-58
2022/09/13 08:01:29;;;;;;;4.27;2.13;;;45.90;1.00;;;;;;5017645;28;20494;-60
2022/09/13 08:03:58;;;;;;;6.47;1.97;;;46.30;1.00;;;;;;5016738;28;20544;-59
2022/09/13 08:06:26;;;;;;;4.30;1.70;;;46.80;1.00;;;;;;5018794;28;20978;-60
2022/09/13 08:08:54;;;;;;;3.80;1.97;;;46.70;1.00;;;;;;5022638;28;20470;-59
2022/09/13 08:11:29;;;;;;;5.83;2.30;;;46.40;1.00;;;;;;5019272;28;20459;-60
2022/09/13 08:13:56;;;;;;;4.33;1.90;;;46.60;1.00;;;;;;5019605;28;20459;-60
2022/09/13 08:16:25;;;;;;;4.97;1.97;;;47.10;1.00;;;;;;5021726;28;20485;-60
2022/09/13 08:18:54;;;;;;;5.53;1.93;;;47.50;1.00;;;;;;5020263;28;20464;-60
2022/09/13 08:21:21;;;;;;;4.97;2.10;;;47.30;1.00;;;;;;5022133;28;20999;-61
2022/09/13 08:23:48;;;;;;;5.07;1.80;;;47.10;1.00;;;;;;5020524;28;20842;-63
2022/09/13 08:26:17;;;;;;;3.80;2.10;;;46.40;1.00;;;;;;5021617;28;20474;-62
2022/09/13 08:28:43;;;;;;;5.53;2.10;;;46.10;1.00;;;;;;5020217;28;20459;-60
2022/09/13 08:31:14;;;;;;;6.50;1.90;;;46.90;1.00;;;;;;5026986;28;20473;-60
2022/09/13 08:33:43;;;;;;;5.37;2.07;;;47.60;1.00;;;;;;5030222;28;20459;-61
2022/09/13 08:36:10;;;;;;;4.37;2.10;;;47.80;1.00;;;;;;5028763;28;20482;-60
2022/09/13 08:38:37;;;;;;;7.97;2.03;;;48.00;1.00;;;;;;5020997;28;20466;-61
2022/09/13 08:41:20;;;;;;;7.10;1.87;;;48.60;1.00;;;;;;5030227;28;20464;-60
2022/09/13 08:43:52;;;;;;;4.97;1.90;;;49.10;1.00;;;;;;5026405;28;20466;-62
2022/09/13 08:46:23;;;;;;;4.80;1.80;;;49.50;1.00;;;;;;5022698;28;20462;-61
2022/09/13 08:48:53;;;;;;;4.47;1.80;;;49.70;1.00;;;;;;5024924;28;20985;-61
2022/09/13 08:51:30;;;;;;;3.80;1.67;;;49.60;1.00;;;;;;5020600;28;20470;-61
2022/09/13 08:53:57;;;;;;;4.20;1.90;;;49.40;1.00;;;;;;5025934;28;20467;-63
2022/09/13 08:56:31;;;;;;;6.93;2.00;;;49.60;1.00;;;;;;5025214;28;20479;-64
2022/09/13 08:59:09;;;;;;;4.83;1.60;;;49.80;1.00;;;;;;5028692;28;20494;-65
2022/09/13 09:01:49;;;;;;;4.30;2.10;;;50.00;1.00;;;;;;5025563;28;20891;-61
2022/09/13 09:04:32;;;;;;;4.50;1.63;;;48.90;1.00;;;;;;5020748;28;20527;-61
2022/09/13 09:07:04;;;;;;;4.23;1.90;;;48.70;1.00;;;;;;5019332;28;20490;-61
2022/09/13 09:09:35;;;;;;;4.80;1.40;;;49.20;1.00;;;;;;5020868;28;20469;-61
2022/09/13 09:12:13;;;;;;;4.10;1.80;;;49.60;1.00;;;;;;5017029;28;20553;-61
2022/09/13 09:14:46;;;;;;;5.57;1.50;;;48.90;1.00;;;;;;5017951;28;20485;-60
2022/09/13 09:17:18;;;;;;;5.30;1.70;;;48.60;1.00;;;;;;5019596;28;20487;-61
2022/09/13 09:19:48;;;;;;;4.37;1.90;;;48.90;1.00;;;;;;5015610;28;20467;-61
2022/09/13 09:22:18;;;;;;;3.40;1.67;;;49.60;1.00;;;;;;5023170;28;20458;-61
2022/09/13 09:24:48;;;;;;;3.67;1.50;;;50.40;1.00;;;;;;5016397;28;20483;-61
2022/09/13 09:27:17;;;;;;;3.40;1.43;;;50.90;1.00;;;;;;5020546;28;20462;-61
2022/09/13 09:29:47;;;;;;;3.83;1.43;;;51.40;1.00;;;;;;5018473;28;20458;-61
2022/09/13 09:32:26;;;;;;;5.67;1.77;;;51.80;1.00;;;;;;5020750;28;20487;-61
2022/09/13 09:35:03;;;;;;;4.10;1.27;;;52.20;1.00;;;;;;5019523;28;20489;-60
2022/09/13 09:37:32;;;;;;;3.67;1.60;;;52.50;1.00;;;;;;5023603;28;20573;-60
2022/09/13 09:40:01;;;;;;;3.97;1.10;;;52.90;1.00;;;;;;5022649;28;20963;-63
2022/09/13 09:42:30;;;;;;;2.77;1.00;;;53.10;1.00;;;;;;5019719;28;20489;-66
2022/09/13 09:45:04;;;;;;;4.40;1.63;;;53.10;1.00;;;;;;5019530;28;21602;-65
2022/09/13 09:47:40;;;;;;;4.47;1.37;;;52.90;1.00;;;;;;5022724;28;20520;-64
2022/09/13 09:50:11;;;;;;;4.73;1.40;;;53.10;1.00;;;;;;5023646;28;20459;-62
2022/09/13 09:52:44;;;;;;;6.87;1.67;;;53.20;1.00;;;;;;5017800;28;20459;-64
2022/09/13 09:55:19;;;;;;;4.53;1.23;;;53.40;1.00;;;;;;5021297;28;20493;-61
2022/09/13 09:57:51;;;;;;;3.73;1.50;;;53.60;1.00;;;;;;5016594;28;20483;-62
2022/09/13 10:00:22;;;;;;;4.13;1.30;;;53.80;1.00;;;;;;5023053;28;20462;-63
2022/09/13 10:02:51;;;;;;;4.70;1.50;;;54.10;1.00;;;;;;5022358;28;20459;-62
2022/09/13 10:05:22;;;;;;;3.57;1.30;;;53.90;1.00;;;;;;5021848;28;21216;-63
2022/09/13 10:07:56;;;;;;;5.50;1.40;;;53.20;1.00;;;;;;5021773;28;20459;-64
2022/09/13 10:10:26;;;;;;;3.53;1.30;;;52.40;1.00;;;;;;5019896;28;20455;-63
2022/09/13 10:12:55;;;;;;;3.30;1.30;;;51.10;1.00;;;;;;5019845;28;20466;-63
2022/09/13 10:15:28;;;;;;;4.87;1.33;;;50.50;1.00;;;;;;5019878;28;20482;-63
2022/09/13 10:18:04;;;;;;;3.87;1.40;;;49.50;1.00;;;;;;5017263;28;20483;-64
2022/09/13 10:20:32;;;;;;;3.63;1.20;;;47.70;1.00;;;;;;5025440;28;20450;-62
2022/09/13 10:23:18;;;;;;;3.40;1.40;;;46.10;1.00;;;;;;5020635;28;20459;-61
2022/09/13 10:25:55;;;;;;;5.33;1.73;;;45.30;1.00;;;;;;5022244;28;20483;-62
2022/09/13 10:28:22;;;;;;;4.90;1.57;;;44.70;1.00;;;;;;5020480;28;20963;-62
2022/09/13 10:30:57;;;;;;;4.43;1.53;;;45.10;1.00;;;;;;5020847;28;20470;-62
2022/09/13 10:33:28;;;;;;;3.50;1.30;;;44.30;1.00;;;;;;5022636;28;20521;-61
2022/09/13 10:35:57;;;;;;;5.23;2.13;;;44.10;1.00;;;;;;5020586;28;21252;-61
2022/09/13 10:38:29;;;;;;;10.33;1.53;;;43.50;1.00;;;;;;5015599;28;20486;-62
2022/09/13 10:40:56;;;;;;;5.10;1.60;;;42.70;1.00;;;;;;5022838;28;20490;-62
2022/09/13 10:43:27;;;;;;;5.30;1.20;;;41.90;1.00;;;;;;5019586;28;20459;-61
2022/09/13 10:45:56;;;;;;;3.73;1.30;;;41.00;1.00;;;;;;5021220;28;20489;-60
2022/09/13 10:48:24;;;;;;;5.10;1.90;;;40.30;1.00;;;;;;5022485;28;20466;-60
2022/09/13 10:51:06;;;;;;;5.50;1.30;;;39.90;1.00;;;;;;5019677;28;20459;-60
2022/09/13 10:53:37;;;;;;;5.07;1.20;;;39.40;1.00;;;;;;5016575;28;20475;-60
2022/09/13 10:56:06;;;;;;;4.60;1.40;;;38.50;1.00;;;;;;5020657;28;21081;-60
2022/09/13 10:58:33;;;;;;;4.90;1.40;;;37.70;1.00;;;;;;5022051;28;20459;-59
2022/09/13 11:01:32;;;;;;;5.77;1.70;;;37.00;1.00;;;;;;5024309;28;20474;-60
2022/09/13 11:04:28;;;;;;;4.93;2.10;;;36.20;1.00;;;;;;5038120;28;20998;-60
2022/09/13 11:07:08;;;;;;;4.70;1.27;;;35.40;1.00;;;;;;5037804;28;20538;-60
2022/09/13 11:09:43;;;;;;;5.17;1.30;;;34.90;1.00;;;;;;5036249;28;21178;-60
2022/09/13 11:12:19;;;;;;;6.87;1.77;;;34.80;1.00;;;;;;5034675;28;20477;-59
2022/09/13 11:15:00;;;;;;;5.17;1.40;;;34.60;1.00;;;;;;5040814;28;20510;-59
2022/09/13 11:17:54;;;;;;;3.90;1.73;;;34.40;1.00;;;;;;5038928;28;21065;-60
2022/09/13 11:20:37;;;;;;;5.80;1.80;;;35.20;1.00;;;;;;5038918;28;20470;-60
2022/09/13 11:23:26;;;;;;;4.30;1.50;;;36.60;1.00;;;;;;5037632;28;20485;-61
2022/09/13 11:26:06;;;;;;;4.50;1.30;;;37.10;1.00;;;;;;5020092;28;20557;-60
2022/09/13 11:28:47;;;;;;;4.07;1.23;;;37.70;1.00;;;;;;5038576;28;20461;-60
2022/09/13 11:31:30;;;;;;;6.93;1.70;;;37.50;1.00;;;;;;5038965;28;20998;-60
2022/09/13 11:34:11;;;;;;;3.83;1.13;;;36.60;1.00;;;;;;5036820;28;20459;-60
2022/09/13 11:36:50;;;;;;;5.00;2.20;;;35.90;1.00;;;;;;5037768;28;20474;-59
2022/09/13 11:39:28;;;;;;;5.50;1.90;;;35.10;1.00;;;;;;5037887;28;20466;-60
2022/09/13 11:42:04;;;;;;;4.40;1.70;;;34.40;1.00;;;;;;5036400;28;20468;-60
2022/09/13 11:44:48;;;;;;;3.70;1.57;;;33.80;1.00;;;;;;5034067;28;20488;-60
2022/09/13 11:47:24;;;;;;;4.97;1.30;;;33.30;1.00;;;;;;5036333;28;20458;-60
2022/09/13 11:50:14;;;;;;;5.03;1.23;;;32.80;1.00;;;;;;5039290;28;20484;-60
2022/09/13 11:52:52;;;;;;;6.67;1.63;;;32.50;1.00;;;;;;5044548;28;20520;-59
2022/09/13 11:55:25;;;;;;;5.97;1.13;;;32.10;1.00;;;;;;5047071;28;20493;-59
2022/09/13 11:57:55;;;;;;;4.53;1.20;;;31.90;1.00;;;;;;5046808;28;20765;-59
2022/09/13 12:00:24;;;;;;;4.63;1.57;;;31.70;1.00;;;;;;5044132;28;20843;-58
2022/09/13 12:02:59;;;;;;;4.00;1.20;;;31.50;1.00;;;;;;5044445;28;20451;-58
2022/09/13 12:05:32;;;;;;;3.90;1.23;;;31.40;1.00;;;;;;5039670;28;20488;-58
2022/09/13 12:08:03;;;;;;;4.53;1.30;;;31.30;1.80;;;;;;5041001;28;20458;-58
2022/09/13 12:10:34;;;;;;;4.93;1.73;;;31.10;1.90;;;;;;5041529;28;20462;-58
2022/09/13 12:13:03;;;;;;;3.40;1.30;;;30.90;1.00;;;;;;5037908;28;20846;-58
2022/09/13 12:15:36;;;;;;;4.57;1.10;;;30.80;1.10;;;;;;5040660;28;20485;-57
2022/09/13 12:18:09;;;;;;;7.23;1.50;;;30.70;2.00;;;;;;5042405;28;20478;-61
2022/09/13 12:20:39;;;;;;;4.80;1.40;;;30.60;2.60;;;;;;5041502;28;20454;-60
2022/09/13 12:23:14;;;;;;;4.33;1.67;;;30.50;2.30;;;;;;5040481;28;20469;-60
2022/09/13 12:25:48;;;;;;;3.70;1.23;;;30.40;2.50;;;;;;5038437;28;20473;-60
2022/09/13 12:28:21;;;;;;;4.57;1.40;;;30.30;3.00;;;;;;5042816;28;20458;-59
2022/09/13 12:30:53;;;;;;;6.43;1.30;;;30.10;2.80;;;;;;5040176;28;20466;-60
2022/09/13 12:33:20;;;;;;;7.67;1.70;;;30.00;2.80;;;;;;5042372;28;20462;-59
2022/09/13 12:36:27;;;;;;;6.00;1.43;;;29.90;3.20;;;;;;5034119;28;20531;-60
2022/09/13 12:39:35;;;;;;;5.90;1.50;;;29.80;3.40;;;;;;5033067;28;20466;-59
2022/09/13 12:42:27;;;;;;;4.33;1.90;;;29.70;3.40;;;;;;4998774;28;20827;-58
2022/09/13 12:45:06;;;;;;;5.10;1.77;;;29.60;3.60;;;;;;5042587;28;20493;-59
2022/09/13 12:48:19;;;;;;;3.77;1.40;;;29.50;4.10;;;;;;5045746;28;20476;-60
2022/09/13 12:50:54;;;;;;;4.60;1.17;;;29.50;4.60;;;;;;4985202;28;20453;-60
2022/09/13 12:53:45;;;;;;;4.83;1.40;;;29.40;4.70;;;;;;5028823;28;20466;-60
2022/09/13 12:56:34;;;;;;;3.70;1.40;;;29.30;4.30;;;;;;5031474;28;20497;-59
2022/09/13 12:59:25;;;;;;;3.30;1.13;;;29.20;4.20;;;;;;5042217;28;20946;-61
2022/09/13 13:01:52;;;;;;;3.90;1.57;;;29.20;5.20;;;;;;5040774;28;20484;-61
2022/09/13 13:04:23;;;;;;;4.57;1.43;;;29.20;5.30;;;;;;5045599;28;20483;-61
2022/09/13 13:06:53;;;;;;;3.60;1.37;;;29.20;5.50;;;;;;5045058;28;20481;-61
2022/09/13 13:09:33;;;;;;;4.27;1.50;;;29.30;5.30;;;;;;5047481;28;21105;-61
2022/09/13 13:12:00;;;;;;;3.97;1.50;;;29.50;5.40;;;;;;5045488;28;20454;-61
2022/09/13 13:14:42;;;;;;;3.90;1.40;;;29.60;4.70;;;;;;5043862;28;20729;-61